createdAt,value
2018-12-09T00:01:26.139Z,21.23
2018-12-09T00:03:52.119Z,21.23
2018-12-09T00:06:18.120Z,21.23
2018-12-09T00:08:44.126Z,21.23
2018-12-09T00:11:10.112Z,21.23
2018-12-09T00:13:36.086Z,21.24
2018-12-09T00:16:02.081Z,21.25
2018-12-09T00:18:28.059Z,21.23
2018-12-09T00:20:54.060Z,21.24
2018-12-09T00:23:20.048Z,21.24
2018-12-09T00:25:46.028Z,21.23
2018-12-09T00:28:12.013Z,21.22
2018-12-09T00:30:38.028Z,21.24
2018-12-09T00:33:04.011Z,21.22
2018-12-09T00:35:29.994Z,21.24
2018-12-09T00:37:55.993Z,21.25
2018-12-09T00:40:21.972Z,21.24
2018-12-09T00:42:47.945Z,21.21
2018-12-09T00:45:13.939Z,21.20
2018-12-09T00:47:39.926Z,21.18
2018-12-09T00:50:05.926Z,21.17
2018-12-09T00:52:31.899Z,21.17
2018-12-09T00:54:57.895Z,21.17
2018-12-09T00:57:23.888Z,21.17
2018-12-09T00:59:49.880Z,21.14
2018-12-09T01:02:15.862Z,21.16
2018-12-09T01:04:41.855Z,21.15
2018-12-09T01:07:07.832Z,21.15
2018-12-09T01:09:33.824Z,21.16
2018-12-09T01:11:59.814Z,21.15
2018-12-09T01:14:25.783Z,21.14
2018-12-09T01:16:51.817Z,21.16
2018-12-09T01:19:17.799Z,21.15
2018-12-09T01:21:43.774Z,21.14
2018-12-09T01:24:09.783Z,21.15
2018-12-09T01:26:35.767Z,21.15
2018-12-09T01:29:01.743Z,21.13
2018-12-09T01:31:27.730Z,21.15
2018-12-09T01:33:53.730Z,21.16
2018-12-09T01:36:19.712Z,21.16
2018-12-09T01:38:45.701Z,21.14
2018-12-09T01:41:11.685Z,21.15
2018-12-09T01:43:37.661Z,21.15
2018-12-09T01:46:03.632Z,21.11
2018-12-09T01:48:29.627Z,21.16
2018-12-09T01:50:55.618Z,21.16
2018-12-09T01:53:21.637Z,21.16
2018-12-09T01:55:47.630Z,21.16
2018-12-09T01:58:13.608Z,21.14
2018-12-09T02:00:39.593Z,21.14
2018-12-09T02:03:05.593Z,21.19
2018-12-09T02:05:31.573Z,21.18
2018-12-09T02:07:57.555Z,21.17
2018-12-09T02:10:23.524Z,21.15
2018-12-09T02:12:49.559Z,21.17
2018-12-09T02:15:15.526Z,21.14
2018-12-09T02:17:41.563Z,21.15
2018-12-09T02:20:07.545Z,21.15
2018-12-09T02:22:33.531Z,21.19
2018-12-09T02:24:59.496Z,21.15
2018-12-09T02:27:25.484Z,21.15
2018-12-09T02:29:51.468Z,21.17
2018-12-09T02:32:17.445Z,21.18
2018-12-09T02:34:43.435Z,21.17
2018-12-09T02:37:09.425Z,21.19
2018-12-09T02:39:35.393Z,21.17
2018-12-09T02:42:01.408Z,21.15
2018-12-09T02:44:28.152Z,21.15
2018-12-09T02:46:53.370Z,21.17
2018-12-09T02:49:19.351Z,21.18
2018-12-09T02:51:45.407Z,21.14
2018-12-09T02:54:11.389Z,21.13
2018-12-09T02:56:37.385Z,21.16
2018-12-09T02:59:03.411Z,21.15
2018-12-09T03:01:29.396Z,21.17
2018-12-09T03:03:55.366Z,21.16
2018-12-09T03:06:21.395Z,21.17
2018-12-09T03:08:47.367Z,21.16
2018-12-09T03:11:13.351Z,21.15
2018-12-09T03:13:39.338Z,21.13
2018-12-09T03:16:05.318Z,21.12
2018-12-09T03:18:31.295Z,21.13
2018-12-09T03:20:57.286Z,21.16
2018-12-09T03:23:23.271Z,21.18
2018-12-09T03:25:49.273Z,21.15
2018-12-09T03:28:15.243Z,21.13
2018-12-09T03:30:41.245Z,21.15
2018-12-09T03:33:07.222Z,21.13
2018-12-09T03:35:33.237Z,21.15
2018-12-09T03:37:59.225Z,21.17
2018-12-09T03:40:25.207Z,21.17
2018-12-09T03:42:51.196Z,21.17
2018-12-09T03:45:17.197Z,21.17
2018-12-09T03:47:43.190Z,21.15
2018-12-09T03:50:09.180Z,21.13
2018-12-09T03:52:35.163Z,21.13
2018-12-09T03:55:01.152Z,21.15
2018-12-09T03:57:27.148Z,21.17
2018-12-09T03:59:53.158Z,21.14
2018-12-09T04:02:19.148Z,21.17
2018-12-09T04:04:45.127Z,21.16
2018-12-09T04:07:11.098Z,21.16
2018-12-09T04:09:37.089Z,21.13
2018-12-09T04:12:03.085Z,21.14
2018-12-09T04:14:29.090Z,21.17
2018-12-09T04:16:55.075Z,21.13
2018-12-09T04:19:21.072Z,21.17
2018-12-09T04:21:47.127Z,21.14
2018-12-09T04:24:13.082Z,21.14
2018-12-09T04:26:39.061Z,21.14
2018-12-09T04:29:05.069Z,21.17
2018-12-09T04:31:31.042Z,21.16
2018-12-09T04:33:57.040Z,21.15
2018-12-09T04:36:23.027Z,21.16
2018-12-09T04:38:49.006Z,21.14
2018-12-09T04:41:14.989Z,21.18
2018-12-09T04:43:40.992Z,21.16
2018-12-09T04:46:07.014Z,21.16
2018-12-09T04:48:32.987Z,21.14
2018-12-09T04:50:58.970Z,21.15
2018-12-09T04:53:24.962Z,21.15
2018-12-09T04:55:50.934Z,21.16
2018-12-09T04:58:16.927Z,21.19
2018-12-09T05:00:42.904Z,21.14
2018-12-09T05:03:08.892Z,21.17
2018-12-09T05:05:34.864Z,21.17
2018-12-09T05:08:00.865Z,21.18
2018-12-09T05:10:26.843Z,21.17
2018-12-09T05:12:52.842Z,21.15
2018-12-09T05:15:18.825Z,21.17
2018-12-09T05:17:44.804Z,21.13
2018-12-09T05:20:10.772Z,21.16
2018-12-09T05:22:36.774Z,21.15
2018-12-09T05:25:02.748Z,21.18
2018-12-09T05:27:28.735Z,21.18
2018-12-09T05:29:54.728Z,21.17
2018-12-09T05:32:20.717Z,21.16
2018-12-09T05:34:46.693Z,21.14
2018-12-09T05:37:12.693Z,21.13
2018-12-09T05:39:38.676Z,21.15
2018-12-09T05:42:04.657Z,21.17
2018-12-09T05:44:30.627Z,21.21
2018-12-09T05:46:56.629Z,21.24
2018-12-09T05:49:22.617Z,21.28
2018-12-09T05:51:48.606Z,21.28
2018-12-09T05:54:14.605Z,21.30
2018-12-09T05:56:40.582Z,21.28
2018-12-09T05:59:06.563Z,21.24
2018-12-09T06:01:32.557Z,21.30
2018-12-09T06:03:58.593Z,21.30
2018-12-09T06:06:24.534Z,21.29
2018-12-09T06:08:50.524Z,21.26
2018-12-09T06:11:16.544Z,21.27
2018-12-09T06:13:42.515Z,21.29
2018-12-09T06:16:08.523Z,21.29
2018-12-09T06:18:34.511Z,21.30
2018-12-09T06:21:00.508Z,21.29
2018-12-09T06:23:26.484Z,21.30
2018-12-09T06:25:52.481Z,21.32
2018-12-09T06:28:18.445Z,21.26
2018-12-09T06:30:44.552Z,21.22
2018-12-09T06:33:10.474Z,21.25
2018-12-09T06:35:36.494Z,21.27
2018-12-09T06:38:02.462Z,21.23
2018-12-09T06:40:28.462Z,21.23
2018-12-09T06:42:54.450Z,21.22
2018-12-09T06:45:20.431Z,21.23
2018-12-09T06:47:46.425Z,21.22
2018-12-09T06:50:12.430Z,21.20
2018-12-09T06:52:38.403Z,21.20
2018-12-09T06:55:04.407Z,21.25
2018-12-09T06:57:30.391Z,21.24
2018-12-09T06:59:56.375Z,21.22
2018-12-09T07:02:22.361Z,21.25
2018-12-09T07:04:48.363Z,21.24
2018-12-09T07:07:14.333Z,21.26
2018-12-09T07:09:40.332Z,21.26
2018-12-09T07:12:06.307Z,21.26
2018-12-09T07:14:32.293Z,21.26
2018-12-09T07:16:58.277Z,21.24
2018-12-09T07:19:24.267Z,21.29
2018-12-09T07:21:50.252Z,21.29
2018-12-09T07:24:16.249Z,21.30
2018-12-09T07:26:42.220Z,21.31
2018-12-09T07:29:08.206Z,21.31
2018-12-09T07:31:34.183Z,21.31
2018-12-09T07:34:00.185Z,21.32
2018-12-09T07:36:26.180Z,21.31
2018-12-09T07:38:52.171Z,21.30
2018-12-09T07:41:18.154Z,21.32
2018-12-09T07:43:44.158Z,21.31
2018-12-09T07:46:10.119Z,21.32
2018-12-09T07:48:36.126Z,21.33
2018-12-09T07:51:02.118Z,21.34
2018-12-09T07:53:28.102Z,21.34
2018-12-09T07:55:54.125Z,21.35
2018-12-09T07:58:20.282Z,21.32
2018-12-09T08:00:46.299Z,21.30
2018-12-09T08:03:12.274Z,21.27
2018-12-09T08:05:38.259Z,21.27
2018-12-09T08:08:04.249Z,21.27
2018-12-09T08:10:30.229Z,21.28
2018-12-09T08:12:56.236Z,21.28
2018-12-09T08:15:22.264Z,21.29
2018-12-09T08:17:48.252Z,21.28
2018-12-09T08:20:14.229Z,21.30
2018-12-09T08:22:40.265Z,21.28
2018-12-09T08:25:06.225Z,21.29
2018-12-09T08:27:32.307Z,21.27
2018-12-09T08:29:58.428Z,21.28
2018-12-09T08:32:24.407Z,21.27
2018-12-09T08:34:50.393Z,21.27
2018-12-09T08:37:16.410Z,21.27
2018-12-09T08:39:42.393Z,21.27
2018-12-09T08:42:08.408Z,21.27
2018-12-09T08:44:34.390Z,21.28
2018-12-09T08:47:00.375Z,21.26
2018-12-09T08:49:26.358Z,21.27
2018-12-09T08:51:52.351Z,21.25
2018-12-09T08:54:18.348Z,21.26
2018-12-09T08:56:44.322Z,21.25
2018-12-09T08:59:10.301Z,21.26
2018-12-09T09:01:36.293Z,21.24
2018-12-09T09:04:02.286Z,21.23
2018-12-09T09:06:28.306Z,21.24
2018-12-09T09:08:54.300Z,21.25
2018-12-09T09:11:20.295Z,21.25
2018-12-09T09:13:46.261Z,21.26
2018-12-09T09:16:12.249Z,21.25
2018-12-09T09:18:38.278Z,21.25
2018-12-09T09:21:04.262Z,21.25
2018-12-09T09:23:30.257Z,21.26
2018-12-09T09:25:56.383Z,21.26
2018-12-09T09:28:22.396Z,21.26
2018-12-09T09:30:48.526Z,21.26
2018-12-09T09:33:14.528Z,21.26
2018-12-09T09:35:40.492Z,21.29
2018-12-09T09:38:06.608Z,21.29
2018-12-09T09:40:32.589Z,21.30
2018-12-09T09:42:58.582Z,21.31
2018-12-09T09:45:24.571Z,21.32
2018-12-09T09:47:50.590Z,21.30
2018-12-09T09:50:16.563Z,21.32
2018-12-09T09:52:42.557Z,21.32
2018-12-09T09:55:08.606Z,21.34
2018-12-09T09:57:34.607Z,21.39
2018-12-09T10:00:00.579Z,21.41
2018-12-09T10:02:26.579Z,21.43
2018-12-09T10:04:52.557Z,21.51
2018-12-09T10:07:18.542Z,21.54
2018-12-09T10:09:44.524Z,21.61
2018-12-09T10:12:10.560Z,21.63
2018-12-09T10:14:36.529Z,21.66
2018-12-09T10:17:02.590Z,21.70
2018-12-09T10:19:28.605Z,21.75
2018-12-09T10:21:54.591Z,21.79
2018-12-09T10:24:20.822Z,21.75
2018-12-09T10:26:49.122Z,21.76
2018-12-09T10:29:15.096Z,21.80
2018-12-09T10:31:41.078Z,21.82
2018-12-09T10:34:07.093Z,21.81
2018-12-09T10:36:33.076Z,21.87
2018-12-09T10:38:59.072Z,21.91
2018-12-09T10:41:25.090Z,21.90
2018-12-09T10:43:51.070Z,21.93
2018-12-09T10:46:17.110Z,21.92
2018-12-09T10:48:43.094Z,21.92
2018-12-09T10:51:09.097Z,21.91
2018-12-09T10:53:35.075Z,21.87
2018-12-09T10:56:01.148Z,21.90
2018-12-09T10:58:27.160Z,21.89
2018-12-09T11:00:53.389Z,21.86
2018-12-09T11:03:19.382Z,21.90
2018-12-09T11:05:45.383Z,21.89
2018-12-09T11:08:11.355Z,21.89
2018-12-09T11:10:37.347Z,21.87
2018-12-09T11:13:03.332Z,21.89
2018-12-09T11:15:29.456Z,21.91
2018-12-09T11:17:55.573Z,21.92
2018-12-09T11:20:21.568Z,21.89
2018-12-09T11:22:47.588Z,21.92
2018-12-09T11:25:13.582Z,21.93
2018-12-09T11:27:39.558Z,21.94
2018-12-09T11:30:05.577Z,21.95
2018-12-09T11:32:32.298Z,21.92
2018-12-09T11:34:58.350Z,21.91
2018-12-09T11:37:24.506Z,21.94
2018-12-09T11:39:50.616Z,21.94
2018-12-09T11:42:16.621Z,21.93
2018-12-09T11:44:42.628Z,21.93
2018-12-09T11:50:09.626Z,21.90
2018-12-09T11:52:36.967Z,21.89
2018-12-09T11:55:03.078Z,21.90
2018-12-09T11:57:29.093Z,21.90
2018-12-09T11:59:55.097Z,21.89
2018-12-09T12:02:21.395Z,21.84
2018-12-09T12:04:47.381Z,21.83
2018-12-09T12:07:13.434Z,21.82
2018-12-09T12:09:39.568Z,21.80
2018-12-09T12:12:05.710Z,21.74
2018-12-09T12:14:31.707Z,21.70
2018-12-09T12:16:57.707Z,21.70
2018-12-09T12:19:23.738Z,21.69
2018-12-09T12:21:49.732Z,21.70
2018-12-09T12:24:15.739Z,21.67
2018-12-09T12:26:41.712Z,21.67
2018-12-09T12:29:07.712Z,21.62
2018-12-09T12:31:33.702Z,21.59
2018-12-09T12:33:59.704Z,21.58
2018-12-09T12:36:25.698Z,21.57
2018-12-09T12:38:52.445Z,21.78
2018-12-09T12:41:18.430Z,21.77
2018-12-09T12:43:44.426Z,22.02
2018-12-09T12:46:10.416Z,21.84
2018-12-09T12:48:36.420Z,21.82
2018-12-09T12:51:02.463Z,21.80
2018-12-09T12:53:28.459Z,21.81
2018-12-09T12:55:54.494Z,21.82
2018-12-09T12:58:20.492Z,21.84
2018-12-09T13:00:46.499Z,21.84
2018-12-09T13:03:12.632Z,21.83
2018-12-09T13:05:40.633Z,21.92
2018-12-09T13:08:06.616Z,21.97
2018-12-09T13:10:32.612Z,21.99
2018-12-09T13:12:58.906Z,21.94
2018-12-09T13:15:24.885Z,22.04
2018-12-09T13:17:50.883Z,21.97
2018-12-09T13:20:16.934Z,21.93
2018-12-09T13:22:42.987Z,21.94
2018-12-09T13:25:08.978Z,21.91
2018-12-09T13:27:35.003Z,21.89
2018-12-09T13:30:01.017Z,21.87
2018-12-09T13:32:27.065Z,21.85
2018-12-09T13:34:53.086Z,21.83
2018-12-09T13:37:19.327Z,21.82
2018-12-09T13:39:45.318Z,21.77
2018-12-09T13:42:11.704Z,21.76
2018-12-09T13:44:37.714Z,21.75
2018-12-09T13:47:03.767Z,21.72
2018-12-09T13:49:29.852Z,21.71
2018-12-09T13:51:55.891Z,21.71
2018-12-09T13:54:21.877Z,21.71
2018-12-09T13:56:47.886Z,21.68
2018-12-09T13:59:14.138Z,21.67
2018-12-09T14:01:40.117Z,21.65
2018-12-09T14:04:06.253Z,21.67
2018-12-09T14:06:32.298Z,21.67
2018-12-09T14:08:58.281Z,21.67
2018-12-09T14:11:24.387Z,21.66
2018-12-09T14:13:50.426Z,21.65
2018-12-09T14:16:16.702Z,21.64
2018-12-09T14:18:42.687Z,21.65
2018-12-09T14:21:08.729Z,21.65
2018-12-09T14:23:34.716Z,21.63
2018-12-09T14:26:00.691Z,21.62
2018-12-09T14:28:26.705Z,21.62
2018-12-09T14:30:52.712Z,21.61
2018-12-09T14:33:18.690Z,21.64
2018-12-09T14:35:44.724Z,21.62
2018-12-09T14:38:10.712Z,21.64
2018-12-09T14:40:36.719Z,21.64
2018-12-09T14:43:02.710Z,21.63
2018-12-09T14:45:28.701Z,21.61
2018-12-09T14:47:54.730Z,21.64
2018-12-09T14:50:20.727Z,21.69
2018-12-09T14:52:46.708Z,21.72
2018-12-09T14:55:12.724Z,21.71
2018-12-09T14:57:38.700Z,21.72
2018-12-09T15:00:04.741Z,21.71
2018-12-09T15:02:30.721Z,21.71
2018-12-09T15:04:56.740Z,21.70
2018-12-09T15:07:22.704Z,21.69
2018-12-09T15:09:48.787Z,21.70
2018-12-09T15:12:14.791Z,21.72
2018-12-09T15:14:40.766Z,21.79
2018-12-09T15:17:06.773Z,21.83
2018-12-09T15:19:32.782Z,21.93
2018-12-09T15:21:58.770Z,21.92
2018-12-09T15:24:24.807Z,21.86
2018-12-09T15:26:53.063Z,21.78
2018-12-09T15:29:19.072Z,21.72
2018-12-09T15:31:45.113Z,21.75
2018-12-09T15:34:11.164Z,21.75
2018-12-09T15:36:37.147Z,21.78
2018-12-09T15:39:03.125Z,21.73
2018-12-09T15:41:29.147Z,21.72
2018-12-09T15:43:55.149Z,21.73
2018-12-09T15:46:21.137Z,21.69
2018-12-09T15:48:47.126Z,21.76
2018-12-09T15:51:13.135Z,21.76
2018-12-09T15:53:39.163Z,21.76
2018-12-09T15:56:05.145Z,21.75
2018-12-09T15:58:31.150Z,21.72
2018-12-09T16:00:57.133Z,21.72
2018-12-09T16:03:23.116Z,21.70
2018-12-09T16:05:49.103Z,21.72
2018-12-09T16:08:15.106Z,21.70
2018-12-09T16:10:41.075Z,21.72
2018-12-09T16:13:07.103Z,21.71
2018-12-09T16:15:33.083Z,21.71
2018-12-09T16:17:59.105Z,21.71
2018-12-09T16:20:25.218Z,21.69
2018-12-09T16:22:51.267Z,21.66
2018-12-09T16:25:17.241Z,21.60
2018-12-09T16:27:43.231Z,21.60
2018-12-09T16:30:09.293Z,21.60
2018-12-09T16:32:35.294Z,21.58
2018-12-09T16:35:01.273Z,21.57
2018-12-09T16:37:27.278Z,21.54
2018-12-09T16:39:53.283Z,21.52
2018-12-09T16:42:19.421Z,21.57
2018-12-09T16:44:45.441Z,21.54
2018-12-09T16:47:11.444Z,21.54
2018-12-09T16:49:37.426Z,21.58
2018-12-09T16:52:03.432Z,21.58
2018-12-09T16:54:29.418Z,21.61
2018-12-09T16:56:55.401Z,21.65
2018-12-09T16:59:21.385Z,21.70
2018-12-09T17:01:47.391Z,21.75
2018-12-09T17:04:13.380Z,21.68
2018-12-09T17:06:48.946Z,21.75
2018-12-09T17:09:16.833Z,21.72
2018-12-09T17:11:43.177Z,21.73
2018-12-09T17:14:09.474Z,21.68
2018-12-09T17:16:35.479Z,21.64
2018-12-09T17:19:01.455Z,21.67
2018-12-09T17:21:27.634Z,21.60
2018-12-09T17:23:53.493Z,21.58
2018-12-09T17:26:19.504Z,21.59
2018-12-09T17:28:45.492Z,21.56
2018-12-09T17:31:11.499Z,21.58
2018-12-09T17:33:37.525Z,21.62
2018-12-09T17:36:03.553Z,21.58
2018-12-09T17:38:29.554Z,21.57
2018-12-09T17:40:55.574Z,21.64
2018-12-09T17:43:21.754Z,21.64
2018-12-09T17:45:47.744Z,21.71
2018-12-09T17:48:13.903Z,21.68
2018-12-09T17:50:40.017Z,21.65
2018-12-09T17:53:06.357Z,21.69
2018-12-09T17:55:32.356Z,21.71
2018-12-09T17:57:58.344Z,21.69
2018-12-09T18:00:24.734Z,21.71
2018-12-09T18:02:50.718Z,21.70
2018-12-09T18:05:17.105Z,21.71
2018-12-09T18:07:43.218Z,21.70
2018-12-09T18:10:09.357Z,21.68
2018-12-09T18:12:35.454Z,21.71
2018-12-09T18:15:01.429Z,21.72
2018-12-09T18:17:27.418Z,21.70
2018-12-09T18:19:53.459Z,21.68
2018-12-09T18:22:19.435Z,21.72
2018-12-09T18:24:45.426Z,21.69
2018-12-09T18:27:11.465Z,21.69
2018-12-09T18:29:37.455Z,21.71
2018-12-09T18:32:03.448Z,21.75
2018-12-09T18:34:29.458Z,21.77
2018-12-09T18:36:55.482Z,21.78
2018-12-09T18:39:21.486Z,21.80
2018-12-09T18:41:47.507Z,21.77
2018-12-09T18:44:13.527Z,21.76
2018-12-09T18:46:39.508Z,21.79
2018-12-09T18:49:05.520Z,21.83
2018-12-09T18:51:31.485Z,21.83
2018-12-09T18:53:57.486Z,21.81
2018-12-09T18:56:23.480Z,21.80
2018-12-09T18:58:49.535Z,21.77
2018-12-09T19:01:15.525Z,21.72
2018-12-09T19:03:41.510Z,21.73
2018-12-09T19:06:07.584Z,21.72
2018-12-09T19:08:33.566Z,21.74
2018-12-09T19:11:00.127Z,21.74
2018-12-09T19:13:26.138Z,21.66
2018-12-09T19:15:52.103Z,21.62
2018-12-09T19:18:18.104Z,21.61
2018-12-09T19:20:44.135Z,21.58
2018-12-09T19:23:10.187Z,21.64
2018-12-09T19:25:36.683Z,21.61
2018-12-09T19:28:02.679Z,21.58
2018-12-09T19:30:32.221Z,21.60
2018-12-09T19:32:59.105Z,21.60
2018-12-09T19:35:25.089Z,21.63
2018-12-09T19:37:51.097Z,21.63
2018-12-09T19:40:17.962Z,21.68
2018-12-09T19:42:45.780Z,21.71
2018-12-09T19:45:11.954Z,21.68
2018-12-09T19:47:38.541Z,21.65
2018-12-09T19:50:04.598Z,21.65
2018-12-09T19:52:30.598Z,21.69
2018-12-09T19:54:57.172Z,21.67
2018-12-09T19:57:23.720Z,21.61
2018-12-09T19:59:50.450Z,21.63
2018-12-09T20:02:16.434Z,21.68
2018-12-09T20:04:42.656Z,21.68
2018-12-09T20:07:08.634Z,21.64
2018-12-09T20:09:34.644Z,21.66
2018-12-09T20:12:00.725Z,21.66
2018-12-09T20:14:26.842Z,21.66
2018-12-09T20:16:52.821Z,21.68
2018-12-09T20:19:18.876Z,21.68
2018-12-09T20:21:46.423Z,21.68
2018-12-09T20:24:12.438Z,21.68
2018-12-09T20:26:38.417Z,21.70
2018-12-09T20:29:04.481Z,21.65
2018-12-09T20:31:30.415Z,21.67
2018-12-09T20:33:56.416Z,21.69
2018-12-09T20:36:36.238Z,21.66
2018-12-09T20:39:02.226Z,21.67
2018-12-09T20:41:28.290Z,21.67
2018-12-09T20:43:54.298Z,21.66
2018-12-09T20:46:20.269Z,21.68
2018-12-09T20:48:46.847Z,21.70
2018-12-09T20:51:12.839Z,21.71
2018-12-09T20:53:38.840Z,21.69
2018-12-09T20:56:04.835Z,21.70
2018-12-09T20:58:30.835Z,21.68
2018-12-09T21:00:56.830Z,21.68
2018-12-09T21:03:22.822Z,21.69
2018-12-09T21:05:48.859Z,21.69
2018-12-09T21:08:14.855Z,21.64
2018-12-09T21:10:40.869Z,21.65
2018-12-09T21:13:07.113Z,21.67
2018-12-09T21:15:33.053Z,21.60
2018-12-09T21:17:59.039Z,21.67
2018-12-09T21:20:25.021Z,21.74
2018-12-09T21:22:51.089Z,21.71
2018-12-09T21:25:17.210Z,21.69
2018-12-09T21:27:43.344Z,21.71
2018-12-09T21:30:09.357Z,21.66
2018-12-09T21:32:35.338Z,21.67
2018-12-09T21:35:01.323Z,21.69
2018-12-09T21:37:27.649Z,21.66
2018-12-09T21:39:53.629Z,21.68
2018-12-09T21:42:19.621Z,21.68
2018-12-09T21:44:45.622Z,21.69
2018-12-09T21:47:11.932Z,21.69
2018-12-09T21:49:37.901Z,21.76
2018-12-09T21:52:03.910Z,21.77
2018-12-09T21:54:29.954Z,21.75
2018-12-09T21:56:55.933Z,21.81
2018-12-09T21:59:21.911Z,21.76
2018-12-09T22:01:47.911Z,21.76
2018-12-09T22:04:13.903Z,21.67
2018-12-09T22:06:39.898Z,21.75
2018-12-09T22:09:05.883Z,21.71
2018-12-09T22:11:31.868Z,21.65
2018-12-09T22:13:57.837Z,21.66
2018-12-09T22:16:23.866Z,21.64
2018-12-09T22:18:49.849Z,21.62
2018-12-09T22:21:16.525Z,21.62
2018-12-09T22:23:41.815Z,21.61
2018-12-09T22:26:07.797Z,21.64
2018-12-09T22:28:33.785Z,21.62
2018-12-09T22:30:59.780Z,21.62
2018-12-09T22:33:25.774Z,21.60
2018-12-09T22:35:51.761Z,21.62
2018-12-09T22:38:17.731Z,21.59
2018-12-09T22:40:43.754Z,21.60
2018-12-09T22:43:09.737Z,21.58
2018-12-09T22:45:35.742Z,21.58
2018-12-09T22:48:01.728Z,21.58
2018-12-09T22:50:27.704Z,21.59
2018-12-09T22:52:53.675Z,21.57
2018-12-09T22:55:19.665Z,21.56
2018-12-09T22:57:45.654Z,21.58
2018-12-09T23:00:11.639Z,21.60
2018-12-09T23:02:37.623Z,21.55
2018-12-09T23:05:03.600Z,21.56
2018-12-09T23:07:29.583Z,21.55
2018-12-09T23:09:55.574Z,21.56
2018-12-09T23:12:21.559Z,21.59
2018-12-09T23:14:47.541Z,21.59
2018-12-09T23:17:13.529Z,21.54
2018-12-09T23:19:39.536Z,21.59
2018-12-09T23:22:05.501Z,21.54
2018-12-09T23:24:31.503Z,21.56
2018-12-09T23:26:57.480Z,21.55
2018-12-09T23:29:23.471Z,21.51
2018-12-09T23:31:49.448Z,21.52
2018-12-09T23:34:15.447Z,21.52
2018-12-09T23:36:41.438Z,21.55
2018-12-09T23:39:07.438Z,21.53
2018-12-09T23:41:33.428Z,21.56
2018-12-09T23:43:59.419Z,21.53
2018-12-09T23:46:25.396Z,21.51
2018-12-09T23:48:51.399Z,21.53
2018-12-09T23:51:17.383Z,21.51
2018-12-09T23:53:43.371Z,21.53
2018-12-09T23:56:09.343Z,21.53
2018-12-09T23:58:35.350Z,21.52
